sensor_id;sensor_type;location;lat;lon;timestamp;temperature;humidity
17988;DHT22;9119;50.932;5.342;2023-03-12T00:00:18;4.60;99.90
17988;DHT22;9119;50.932;5.342;2023-03-12T00:02:44;4.70;99.90
17988;DHT22;9119;50.932;5.342;2023-03-12T00:05:10;4.70;99.90
17988;DHT22;9119;50.932;5.342;2023-03-12T00:07:36;4.80;99.90
17988;DHT22;9119;50.932;5.342;2023-03-12T00:10:07;4.80;99.90
17988;DHT22;9119;50.932;5.342;2023-03-12T00:12:32;4.70;99.90
17988;DHT22;9119;50.932;5.342;2023-03-12T00:14:59;4.70;99.90
17988;DHT22;9119;50.932;5.342;2023-03-12T00:17:24;4.60;99.90
17988;DHT22;9119;50.932;5.342;2023-03-12T00:19:52;4.60;99.90
17988;DHT22;9119;50.932;5.342;2023-03-12T00:22:17;4.60;99.90
17988;DHT22;9119;50.932;5.342;2023-03-12T00:24:53;4.40;99.90
17988;DHT22;9119;50.932;5.342;2023-03-12T00:27:19;4.40;99.90
17988;DHT22;9119;50.932;5.342;2023-03-12T00:29:45;4.40;99.90
17988;DHT22;9119;50.932;5.342;2023-03-12T00:32:11;4.40;99.90
17988;DHT22;9119;50.932;5.342;2023-03-12T00:34:37;4.50;99.90
17988;DHT22;9119;50.932;5.342;2023-03-12T00:37:02;4.60;99.90
17988;DHT22;9119;50.932;5.342;2023-03-12T00:39:28;4.60;99.90
17988;DHT22;9119;50.932;5.342;2023-03-12T00:41:54;4.40;99.90
17988;DHT22;9119;50.932;5.342;2023-03-12T00:44:19;4.40;99.90
17988;DHT22;9119;50.932;5.342;2023-03-12T00:46:45;4.40;99.90
17988;DHT22;9119;50.932;5.342;2023-03-12T00:49:11;4.40;99.90
17988;DHT22;9119;50.932;5.342;2023-03-12T00:51:37;4.50;99.90
17988;DHT22;9119;50.932;5.342;2023-03-12T00:54:03;4.50;99.90
17988;DHT22;9119;50.932;5.342;2023-03-12T00:56:29;4.40;99.90
17988;DHT22;9119;50.932;5.342;2023-03-12T00:58:55;4.50;99.90
17988;DHT22;9119;50.932;5.342;2023-03-12T01:01:20;4.40;99.90
17988;DHT22;9119;50.932;5.342;2023-03-12T01:03:46;4.50;99.90
17988;DHT22;9119;50.932;5.342;2023-03-12T01:06:12;4.50;99.90
17988;DHT22;9119;50.932;5.342;2023-03-12T01:08:38;4.50;99.90
17988;DHT22;9119;50.932;5.342;2023-03-12T01:11:04;4.50;99.90
17988;DHT22;9119;50.932;5.342;2023-03-12T01:13:30;4.50;99.90
17988;DHT22;9119;50.932;5.342;2023-03-12T01:15:55;4.50;99.90
17988;DHT22;9119;50.932;5.342;2023-03-12T01:18:21;4.40;99.90
17988;DHT22;9119;50.932;5.342;2023-03-12T01:20:47;4.40;99.90
17988;DHT22;9119;50.932;5.342;2023-03-12T01:23:13;4.60;99.90
17988;DHT22;9119;50.932;5.342;2023-03-12T01:25:40;4.60;99.90
17988;DHT22;9119;50.932;5.342;2023-03-12T01:28:06;4.80;99.90
17988;DHT22;9119;50.932;5.342;2023-03-12T01:30:32;4.80;99.90
17988;DHT22;9119;50.932;5.342;2023-03-12T01:32:57;4.70;99.90
17988;DHT22;9119;50.932;5.342;2023-03-12T01:35:23;4.60;99.90
17988;DHT22;9119;50.932;5.342;2023-03-12T01:37:49;4.60;99.90
17988;DHT22;9119;50.932;5.342;2023-03-12T01:40:17;4.60;99.90
17988;DHT22;9119;50.932;5.342;2023-03-12T01:42:51;4.50;99.90
17988;DHT22;9119;50.932;5.342;2023-03-12T01:48:21;4.60;99.90
17988;DHT22;9119;50.932;5.342;2023-03-12T01:50:47;4.60;99.90
17988;DHT22;9119;50.932;5.342;2023-03-12T01:53:13;4.60;99.90
17988;DHT22;9119;50.932;5.342;2023-03-12T01:55:39;4.60;99.90
17988;DHT22;9119;50.932;5.342;2023-03-12T01:58:06;4.60;99.90
17988;DHT22;9119;50.932;5.342;2023-03-12T02:00:32;4.60;99.90
17988;DHT22;9119;50.932;5.342;2023-03-12T02:03:01;4.70;99.90
17988;DHT22;9119;50.932;5.342;2023-03-12T02:05:37;4.80;99.90
17988;DHT22;9119;50.932;5.342;2023-03-12T02:08:11;4.90;99.90
17988;DHT22;9119;50.932;5.342;2023-03-12T02:10:37;4.70;99.90
17988;DHT22;9119;50.932;5.342;2023-03-12T02:13:04;4.90;99.90
17988;DHT22;9119;50.932;5.342;2023-03-12T02:15:30;4.90;99.90
17988;DHT22;9119;50.932;5.342;2023-03-12T02:17:57;4.80;99.90
17988;DHT22;9119;50.932;5.342;2023-03-12T02:20:31;4.90;99.90
17988;DHT22;9119;50.932;5.342;2023-03-12T02:23:28;4.90;99.90
17988;DHT22;9119;50.932;5.342;2023-03-12T02:25:56;4.70;99.90
17988;DHT22;9119;50.932;5.342;2023-03-12T02:28:26;4.80;99.90
17988;DHT22;9119;50.932;5.342;2023-03-12T02:30:56;4.80;99.90
17988;DHT22;9119;50.932;5.342;2023-03-12T02:33:22;4.90;99.90
17988;DHT22;9119;50.932;5.342;2023-03-12T02:35:48;4.90;99.90
17988;DHT22;9119;50.932;5.342;2023-03-12T02:38:50;4.80;99.90
17988;DHT22;9119;50.932;5.342;2023-03-12T02:43:55;4.70;99.90
17988;DHT22;9119;50.932;5.342;2023-03-12T02:46:22;4.90;99.90
17988;DHT22;9119;50.932;5.342;2023-03-12T02:48:47;5.00;99.90
17988;DHT22;9119;50.932;5.342;2023-03-12T02:51:14;4.90;99.90
17988;DHT22;9119;50.932;5.342;2023-03-12T02:53:39;4.90;99.90
17988;DHT22;9119;50.932;5.342;2023-03-12T02:56:05;4.80;99.90
17988;DHT22;9119;50.932;5.342;2023-03-12T02:58:31;4.80;99.90
17988;DHT22;9119;50.932;5.342;2023-03-12T03:00:57;4.90;99.90
17988;DHT22;9119;50.932;5.342;2023-03-12T03:03:23;4.90;99.90
17988;DHT22;9119;50.932;5.342;2023-03-12T03:05:48;4.90;99.90
17988;DHT22;9119;50.932;5.342;2023-03-12T03:08:14;4.80;99.90
17988;DHT22;9119;50.932;5.342;2023-03-12T03:10:40;4.80;99.90
17988;DHT22;9119;50.932;5.342;2023-03-12T03:13:06;4.80;99.90
17988;DHT22;9119;50.932;5.342;2023-03-12T03:15:31;4.70;99.90
17988;DHT22;9119;50.932;5.342;2023-03-12T03:17:57;4.60;99.90
17988;DHT22;9119;50.932;5.342;2023-03-12T03:20:23;4.60;99.90
17988;DHT22;9119;50.932;5.342;2023-03-12T03:22:50;4.60;99.90
17988;DHT22;9119;50.932;5.342;2023-03-12T03:25:16;4.60;99.90
17988;DHT22;9119;50.932;5.342;2023-03-12T03:27:42;4.60;99.90
17988;DHT22;9119;50.932;5.342;2023-03-12T03:30:09;4.50;99.90
17988;DHT22;9119;50.932;5.342;2023-03-12T03:32:34;4.50;99.90
17988;DHT22;9119;50.932;5.342;2023-03-12T03:35:00;4.50;99.90
17988;DHT22;9119;50.932;5.342;2023-03-12T03:37:26;4.40;99.90
17988;DHT22;9119;50.932;5.342;2023-03-12T03:39:52;4.40;99.90
17988;DHT22;9119;50.932;5.342;2023-03-12T03:42:17;4.30;99.90
17988;DHT22;9119;50.932;5.342;2023-03-12T03:44:43;4.20;99.90
17988;DHT22;9119;50.932;5.342;2023-03-12T03:47:09;4.20;99.90
17988;DHT22;9119;50.932;5.342;2023-03-12T03:49:34;4.30;99.90
17988;DHT22;9119;50.932;5.342;2023-03-12T03:52:00;4.40;99.90
17988;DHT22;9119;50.932;5.342;2023-03-12T03:54:25;4.30;99.90
17988;DHT22;9119;50.932;5.342;2023-03-12T03:56:51;4.40;99.90
17988;DHT22;9119;50.932;5.342;2023-03-12T03:59:17;4.20;99.90
17988;DHT22;9119;50.932;5.342;2023-03-12T04:01:42;4.20;99.90
17988;DHT22;9119;50.932;5.342;2023-03-12T04:04:08;4.10;99.90
17988;DHT22;9119;50.932;5.342;2023-03-12T04:06:34;4.10;99.90
17988;DHT22;9119;50.932;5.342;2023-03-12T04:09:00;4.20;99.90
17988;DHT22;9119;50.932;5.342;2023-03-12T04:11:26;4.10;99.90
17988;DHT22;9119;50.932;5.342;2023-03-12T04:13:52;4.10;99.90
17988;DHT22;9119;50.932;5.342;2023-03-12T04:16:18;4.10;99.90
17988;DHT22;9119;50.932;5.342;2023-03-12T04:18:44;4.10;99.90
17988;DHT22;9119;50.932;5.342;2023-03-12T04:21:11;4.20;99.90
17988;DHT22;9119;50.932;5.342;2023-03-12T04:23:38;4.20;99.90
17988;DHT22;9119;50.932;5.342;2023-03-12T04:26:05;4.20;99.90
17988;DHT22;9119;50.932;5.342;2023-03-12T04:28:33;4.20;99.90
17988;DHT22;9119;50.932;5.342;2023-03-12T04:31:01;4.30;99.90
17988;DHT22;9119;50.932;5.342;2023-03-12T04:33:29;4.30;99.90
17988;DHT22;9119;50.932;5.342;2023-03-12T04:35:55;4.30;99.90
17988;DHT22;9119;50.932;5.342;2023-03-12T04:38:22;4.40;99.90
17988;DHT22;9119;50.932;5.342;2023-03-12T04:41:17;4.40;99.90
17988;DHT22;9119;50.932;5.342;2023-03-12T04:43:43;4.40;99.90
17988;DHT22;9119;50.932;5.342;2023-03-12T04:46:09;4.40;99.90
17988;DHT22;9119;50.932;5.342;2023-03-12T04:48:35;4.40;99.90
17988;DHT22;9119;50.932;5.342;2023-03-12T04:51:02;4.40;99.90
17988;DHT22;9119;50.932;5.342;2023-03-12T04:53:28;4.40;99.90
17988;DHT22;9119;50.932;5.342;2023-03-12T04:55:54;4.40;99.90
17988;DHT22;9119;50.932;5.342;2023-03-12T04:58:20;4.40;99.90
17988;DHT22;9119;50.932;5.342;2023-03-12T05:00:47;4.40;99.90
17988;DHT22;9119;50.932;5.342;2023-03-12T05:03:14;4.40;99.90
17988;DHT22;9119;50.932;5.342;2023-03-12T05:05:40;4.40;99.90
17988;DHT22;9119;50.932;5.342;2023-03-12T05:08:05;4.40;99.90
17988;DHT22;9119;50.932;5.342;2023-03-12T05:10:31;4.50;99.90
17988;DHT22;9119;50.932;5.342;2023-03-12T05:12:57;4.50;99.90
17988;DHT22;9119;50.932;5.342;2023-03-12T05:15:23;4.40;99.90
17988;DHT22;9119;50.932;5.342;2023-03-12T05:17:49;4.50;99.90
17988;DHT22;9119;50.932;5.342;2023-03-12T05:20:15;4.50;99.90
17988;DHT22;9119;50.932;5.342;2023-03-12T05:22:42;4.50;99.90
17988;DHT22;9119;50.932;5.342;2023-03-12T05:25:09;4.50;99.90
17988;DHT22;9119;50.932;5.342;2023-03-12T05:27:38;4.50;99.90
17988;DHT22;9119;50.932;5.342;2023-03-12T05:30:05;4.50;99.90
17988;DHT22;9119;50.932;5.342;2023-03-12T05:32:31;4.50;99.90
17988;DHT22;9119;50.932;5.342;2023-03-12T05:34:57;4.50;99.90
17988;DHT22;9119;50.932;5.342;2023-03-12T05:37:23;4.50;99.90
17988;DHT22;9119;50.932;5.342;2023-03-12T05:39:49;4.50;99.90
17988;DHT22;9119;50.932;5.342;2023-03-12T05:42:15;4.50;99.90
17988;DHT22;9119;50.932;5.342;2023-03-12T05:44:41;4.50;99.90
17988;DHT22;9119;50.932;5.342;2023-03-12T05:47:07;4.60;99.90
17988;DHT22;9119;50.932;5.342;2023-03-12T05:49:33;4.60;99.90
17988;DHT22;9119;50.932;5.342;2023-03-12T05:51:58;4.60;99.90
17988;DHT22;9119;50.932;5.342;2023-03-12T05:54:24;4.60;99.90
17988;DHT22;9119;50.932;5.342;2023-03-12T05:56:50;4.60;99.90
17988;DHT22;9119;50.932;5.342;2023-03-12T05:59:16;4.60;99.90
17988;DHT22;9119;50.932;5.342;2023-03-12T06:01:42;4.70;99.90
17988;DHT22;9119;50.932;5.342;2023-03-12T06:04:07;4.80;99.90
17988;DHT22;9119;50.932;5.342;2023-03-12T06:06:34;4.80;99.90
17988;DHT22;9119;50.932;5.342;2023-03-12T06:09:01;4.90;99.90
17988;DHT22;9119;50.932;5.342;2023-03-12T06:11:28;5.00;99.90
17988;DHT22;9119;50.932;5.342;2023-03-12T06:13:55;4.90;99.90
17988;DHT22;9119;50.932;5.342;2023-03-12T06:16:23;5.00;99.90
17988;DHT22;9119;50.932;5.342;2023-03-12T06:18:57;5.00;99.90
17988;DHT22;9119;50.932;5.342;2023-03-12T06:21:26;5.00;99.90
17988;DHT22;9119;50.932;5.342;2023-03-12T06:23:52;5.00;99.90
17988;DHT22;9119;50.932;5.342;2023-03-12T06:26:20;5.10;99.90
17988;DHT22;9119;50.932;5.342;2023-03-12T06:28:47;5.10;99.90
17988;DHT22;9119;50.932;5.342;2023-03-12T06:31:13;5.10;99.90
17988;DHT22;9119;50.932;5.342;2023-03-12T06:33:39;5.20;99.90
17988;DHT22;9119;50.932;5.342;2023-03-12T06:36:06;5.20;99.90
17988;DHT22;9119;50.932;5.342;2023-03-12T06:38:32;5.20;99.90
17988;DHT22;9119;50.932;5.342;2023-03-12T06:41:03;5.30;99.90
17988;DHT22;9119;50.932;5.342;2023-03-12T06:43:31;5.40;99.90
17988;DHT22;9119;50.932;5.342;2023-03-12T06:45:58;5.50;99.90
17988;DHT22;9119;50.932;5.342;2023-03-12T06:48:25;5.50;99.90
17988;DHT22;9119;50.932;5.342;2023-03-12T06:50:51;5.50;99.90
17988;DHT22;9119;50.932;5.342;2023-03-12T06:53:18;5.60;99.90
17988;DHT22;9119;50.932;5.342;2023-03-12T06:55:44;5.60;99.90
17988;DHT22;9119;50.932;5.342;2023-03-12T06:58:10;5.70;99.90
17988;DHT22;9119;50.932;5.342;2023-03-12T07:00:37;5.70;99.90
17988;DHT22;9119;50.932;5.342;2023-03-12T07:03:03;5.70;99.90
17988;DHT22;9119;50.932;5.342;2023-03-12T07:05:28;5.80;99.90
17988;DHT22;9119;50.932;5.342;2023-03-12T07:07:54;5.70;99.90
17988;DHT22;9119;50.932;5.342;2023-03-12T07:10:20;5.70;99.90
17988;DHT22;9119;50.932;5.342;2023-03-12T07:12:46;5.70;99.90
17988;DHT22;9119;50.932;5.342;2023-03-12T07:15:12;5.70;99.90
17988;DHT22;9119;50.932;5.342;2023-03-12T07:17:38;5.80;99.90
17988;DHT22;9119;50.932;5.342;2023-03-12T07:20:04;5.80;99.90
17988;DHT22;9119;50.932;5.342;2023-03-12T07:22:30;5.80;99.90
17988;DHT22;9119;50.932;5.342;2023-03-12T07:24:55;6.00;99.90
17988;DHT22;9119;50.932;5.342;2023-03-12T07:27:21;5.90;99.90
17988;DHT22;9119;50.932;5.342;2023-03-12T07:29:47;6.00;99.90
17988;DHT22;9119;50.932;5.342;2023-03-12T07:32:13;6.00;99.90
17988;DHT22;9119;50.932;5.342;2023-03-12T07:34:38;6.00;99.90
17988;DHT22;9119;50.932;5.342;2023-03-12T07:37:04;6.10;99.90
17988;DHT22;9119;50.932;5.342;2023-03-12T07:39:30;6.20;99.90
17988;DHT22;9119;50.932;5.342;2023-03-12T07:41:56;6.20;99.90
17988;DHT22;9119;50.932;5.342;2023-03-12T07:44:21;6.30;99.90
17988;DHT22;9119;50.932;5.342;2023-03-12T07:46:47;6.30;99.90
17988;DHT22;9119;50.932;5.342;2023-03-12T07:49:13;6.30;99.90
17988;DHT22;9119;50.932;5.342;2023-03-12T07:51:38;6.30;99.90
17988;DHT22;9119;50.932;5.342;2023-03-12T07:54:04;6.40;99.90
17988;DHT22;9119;50.932;5.342;2023-03-12T07:56:30;6.50;99.90
17988;DHT22;9119;50.932;5.342;2023-03-12T07:58:56;6.50;99.90
17988;DHT22;9119;50.932;5.342;2023-03-12T08:01:21;6.60;99.90
17988;DHT22;9119;50.932;5.342;2023-03-12T08:03:47;6.70;99.90
17988;DHT22;9119;50.932;5.342;2023-03-12T08:06:13;6.70;99.90
17988;DHT22;9119;50.932;5.342;2023-03-12T08:08:39;6.80;99.90
17988;DHT22;9119;50.932;5.342;2023-03-12T08:11:07;6.80;99.90
17988;DHT22;9119;50.932;5.342;2023-03-12T08:13:33;6.90;99.90
17988;DHT22;9119;50.932;5.342;2023-03-12T08:16:00;6.90;99.90
17988;DHT22;9119;50.932;5.342;2023-03-12T08:18:26;7.00;99.90
17988;DHT22;9119;50.932;5.342;2023-03-12T08:20:52;7.00;99.90
17988;DHT22;9119;50.932;5.342;2023-03-12T08:23:19;7.10;99.90
17988;DHT22;9119;50.932;5.342;2023-03-12T08:25:46;7.20;99.90
17988;DHT22;9119;50.932;5.342;2023-03-12T08:28:13;7.20;99.90
17988;DHT22;9119;50.932;5.342;2023-03-12T08:30:38;7.30;99.90
17988;DHT22;9119;50.932;5.342;2023-03-12T08:33:04;7.40;99.90
17988;DHT22;9119;50.932;5.342;2023-03-12T08:35:30;7.40;99.90
17988;DHT22;9119;50.932;5.342;2023-03-12T08:37:56;7.40;99.90
17988;DHT22;9119;50.932;5.342;2023-03-12T08:40:23;7.50;99.90
17988;DHT22;9119;50.932;5.342;2023-03-12T08:42:48;7.60;99.90
17988;DHT22;9119;50.932;5.342;2023-03-12T08:45:14;7.60;99.90
17988;DHT22;9119;50.932;5.342;2023-03-12T08:47:41;7.70;99.90
17988;DHT22;9119;50.932;5.342;2023-03-12T08:50:11;7.70;99.90
17988;DHT22;9119;50.932;5.342;2023-03-12T08:52:38;7.80;99.90
17988;DHT22;9119;50.932;5.342;2023-03-12T08:55:05;7.90;99.90
17988;DHT22;9119;50.932;5.342;2023-03-12T08:57:31;7.90;99.90
17988;DHT22;9119;50.932;5.342;2023-03-12T08:59:57;7.90;99.90
17988;DHT22;9119;50.932;5.342;2023-03-12T09:02:23;7.90;99.90
17988;DHT22;9119;50.932;5.342;2023-03-12T09:04:49;7.90;99.90
17988;DHT22;9119;50.932;5.342;2023-03-12T09:07:15;8.00;99.90
17988;DHT22;9119;50.932;5.342;2023-03-12T09:09:43;8.00;99.90
17988;DHT22;9119;50.932;5.342;2023-03-12T09:12:09;8.10;99.90
17988;DHT22;9119;50.932;5.342;2023-03-12T09:14:35;8.20;99.90
17988;DHT22;9119;50.932;5.342;2023-03-12T09:17:01;8.20;99.90
17988;DHT22;9119;50.932;5.342;2023-03-12T09:19:27;8.30;99.90
17988;DHT22;9119;50.932;5.342;2023-03-12T09:21:53;8.30;99.90
17988;DHT22;9119;50.932;5.342;2023-03-12T09:24:19;8.40;99.90
17988;DHT22;9119;50.932;5.342;2023-03-12T09:26:45;8.50;99.90
17988;DHT22;9119;50.932;5.342;2023-03-12T09:29:10;8.50;99.90
17988;DHT22;9119;50.932;5.342;2023-03-12T09:31:36;8.60;99.90
17988;DHT22;9119;50.932;5.342;2023-03-12T09:34:02;8.60;99.90
17988;DHT22;9119;50.932;5.342;2023-03-12T09:36:29;8.70;99.90
17988;DHT22;9119;50.932;5.342;2023-03-12T09:38:55;8.70;99.90
17988;DHT22;9119;50.932;5.342;2023-03-12T09:41:24;8.80;99.90
17988;DHT22;9119;50.932;5.342;2023-03-12T09:44:04;8.90;99.90
17988;DHT22;9119;50.932;5.342;2023-03-12T09:46:43;8.90;99.90
17988;DHT22;9119;50.932;5.342;2023-03-12T09:51:53;9.00;99.90
17988;DHT22;9119;50.932;5.342;2023-03-12T09:54:27;9.00;99.90
17988;DHT22;9119;50.932;5.342;2023-03-12T09:56:57;9.10;99.90
17988;DHT22;9119;50.932;5.342;2023-03-12T09:59:24;9.20;99.90
17988;DHT22;9119;50.932;5.342;2023-03-12T10:01:55;9.40;99.90
17988;DHT22;9119;50.932;5.342;2023-03-12T10:07:22;9.60;99.90
17988;DHT22;9119;50.932;5.342;2023-03-12T10:18:07;9.80;99.90
17988;DHT22;9119;50.932;5.342;2023-03-12T10:20:51;10.00;99.90
17988;DHT22;9119;50.932;5.342;2023-03-12T10:26:09;10.10;99.90
17988;DHT22;9119;50.932;5.342;2023-03-12T10:28:42;10.20;99.90
17988;DHT22;9119;50.932;5.342;2023-03-12T10:31:26;10.20;99.90
17988;DHT22;9119;50.932;5.342;2023-03-12T10:34:01;10.20;99.90
17988;DHT22;9119;50.932;5.342;2023-03-12T10:36:38;10.20;99.90
17988;DHT22;9119;50.932;5.342;2023-03-12T10:39:12;10.40;99.90
17988;DHT22;9119;50.932;5.342;2023-03-12T10:41:41;10.40;99.90
17988;DHT22;9119;50.932;5.342;2023-03-12T10:44:22;10.60;99.90
17988;DHT22;9119;50.932;5.342;2023-03-12T10:49:30;10.70;99.90
17988;DHT22;9119;50.932;5.342;2023-03-12T10:56:53;11.20;99.90
17988;DHT22;9119;50.932;5.342;2023-03-12T10:59:26;11.30;99.90
17988;DHT22;9119;50.932;5.342;2023-03-12T11:01:52;11.30;99.90
17988;DHT22;9119;50.932;5.342;2023-03-12T11:04:20;11.30;99.90
17988;DHT22;9119;50.932;5.342;2023-03-12T11:07:17;11.30;99.90
17988;DHT22;9119;50.932;5.342;2023-03-12T11:09:44;11.20;99.90
17988;DHT22;9119;50.932;5.342;2023-03-12T11:12:28;11.20;99.90
17988;DHT22;9119;50.932;5.342;2023-03-12T11:14:55;11.30;99.90
17988;DHT22;9119;50.932;5.342;2023-03-12T11:17:28;11.50;99.90
17988;DHT22;9119;50.932;5.342;2023-03-12T11:19:54;11.60;99.90
17988;DHT22;9119;50.932;5.342;2023-03-12T11:22:33;11.70;99.90
17988;DHT22;9119;50.932;5.342;2023-03-12T11:25:02;11.70;99.90
17988;DHT22;9119;50.932;5.342;2023-03-12T11:27:48;11.70;99.90
17988;DHT22;9119;50.932;5.342;2023-03-12T11:30:17;11.80;99.90
17988;DHT22;9119;50.932;5.342;2023-03-12T11:32:46;11.80;99.90
17988;DHT22;9119;50.932;5.342;2023-03-12T11:35:16;11.90;99.90
17988;DHT22;9119;50.932;5.342;2023-03-12T11:37:54;12.00;99.90
17988;DHT22;9119;50.932;5.342;2023-03-12T11:40:39;12.10;99.90
17988;DHT22;9119;50.932;5.342;2023-03-12T11:49:15;12.00;99.90
17988;DHT22;9119;50.932;5.342;2023-03-12T11:52:09;12.10;99.90
17988;DHT22;9119;50.932;5.342;2023-03-12T11:54:46;12.30;99.90
17988;DHT22;9119;50.932;5.342;2023-03-12T12:05:53;12.20;99.90
17988;DHT22;9119;50.932;5.342;2023-03-12T12:08:56;12.10;99.90
17988;DHT22;9119;50.932;5.342;2023-03-12T12:22:22;11.80;99.90
17988;DHT22;9119;50.932;5.342;2023-03-12T12:27:27;12.10;99.90
17988;DHT22;9119;50.932;5.342;2023-03-12T12:35:41;12.30;99.90
17988;DHT22;9119;50.932;5.342;2023-03-12T12:38:30;12.40;99.90
17988;DHT22;9119;50.932;5.342;2023-03-12T12:41:17;12.30;99.90
17988;DHT22;9119;50.932;5.342;2023-03-12T12:43:49;12.10;99.90
17988;DHT22;9119;50.932;5.342;2023-03-12T12:46:23;12.10;99.90
17988;DHT22;9119;50.932;5.342;2023-03-12T12:49:07;12.00;99.90
17988;DHT22;9119;50.932;5.342;2023-03-12T12:51:39;12.10;99.90
17988;DHT22;9119;50.932;5.342;2023-03-12T13:02:01;12.20;99.90
17988;DHT22;9119;50.932;5.342;2023-03-12T13:04:34;12.20;99.90
17988;DHT22;9119;50.932;5.342;2023-03-12T13:09:49;12.20;99.90
17988;DHT22;9119;50.932;5.342;2023-03-12T13:14:51;12.10;99.90
17988;DHT22;9119;50.932;5.342;2023-03-12T13:17:34;12.20;99.90
17988;DHT22;9119;50.932;5.342;2023-03-12T13:25:50;12.40;99.90
17988;DHT22;9119;50.932;5.342;2023-03-12T13:30:58;12.50;99.90
17988;DHT22;9119;50.932;5.342;2023-03-12T13:33:44;12.60;99.90
17988;DHT22;9119;50.932;5.342;2023-03-12T13:44:00;12.70;99.90
17988;DHT22;9119;50.932;5.342;2023-03-12T13:46:45;12.60;99.90
17988;DHT22;9119;50.932;5.342;2023-03-12T13:49:13;12.50;99.90
17988;DHT22;9119;50.932;5.342;2023-03-12T13:52:24;12.50;99.90
17988;DHT22;9119;50.932;5.342;2023-03-12T13:55:00;12.50;99.90
17988;DHT22;9119;50.932;5.342;2023-03-12T13:57:44;12.60;99.90
17988;DHT22;9119;50.932;5.342;2023-03-12T14:00:18;12.40;99.90
17988;DHT22;9119;50.932;5.342;2023-03-12T14:02:56;12.50;99.90
17988;DHT22;9119;50.932;5.342;2023-03-12T14:05:24;12.60;99.90
17988;DHT22;9119;50.932;5.342;2023-03-12T14:14:01;12.60;99.90
17988;DHT22;9119;50.932;5.342;2023-03-12T14:18:59;12.70;99.90
17988;DHT22;9119;50.932;5.342;2023-03-12T14:21:32;12.60;99.90
17988;DHT22;9119;50.932;5.342;2023-03-12T14:23:59;12.50;99.90
17988;DHT22;9119;50.932;5.342;2023-03-12T14:26:35;12.50;99.90
17988;DHT22;9119;50.932;5.342;2023-03-12T14:29:07;12.50;99.90
17988;DHT22;9119;50.932;5.342;2023-03-12T14:31:34;12.50;99.90
17988;DHT22;9119;50.932;5.342;2023-03-12T14:34:21;12.60;99.90
17988;DHT22;9119;50.932;5.342;2023-03-12T14:37:03;12.50;99.90
17988;DHT22;9119;50.932;5.342;2023-03-12T14:39:42;12.40;99.90
17988;DHT22;9119;50.932;5.342;2023-03-12T14:42:08;12.40;99.90
17988;DHT22;9119;50.932;5.342;2023-03-12T14:44:36;12.40;99.90
17988;DHT22;9119;50.932;5.342;2023-03-12T14:47:08;12.50;99.90
17988;DHT22;9119;50.932;5.342;2023-03-12T14:49:41;12.60;99.90
17988;DHT22;9119;50.932;5.342;2023-03-12T14:52:09;12.60;99.90
17988;DHT22;9119;50.932;5.342;2023-03-12T14:54:35;12.50;99.90
17988;DHT22;9119;50.932;5.342;2023-03-12T14:57:00;12.40;99.90
17988;DHT22;9119;50.932;5.342;2023-03-12T14:59:31;12.50;99.90
17988;DHT22;9119;50.932;5.342;2023-03-12T15:02:09;12.30;99.90
17988;DHT22;9119;50.932;5.342;2023-03-12T15:04:37;12.40;99.90
17988;DHT22;9119;50.932;5.342;2023-03-12T15:07:04;12.40;99.90
17988;DHT22;9119;50.932;5.342;2023-03-12T15:09:33;12.50;99.90
17988;DHT22;9119;50.932;5.342;2023-03-12T15:12:05;12.30;99.90
17988;DHT22;9119;50.932;5.342;2023-03-12T15:14:35;12.60;99.90
17988;DHT22;9119;50.932;5.342;2023-03-12T15:17:04;12.60;99.90
17988;DHT22;9119;50.932;5.342;2023-03-12T15:19:34;12.70;99.90
17988;DHT22;9119;50.932;5.342;2023-03-12T15:22:02;12.70;99.90
17988;DHT22;9119;50.932;5.342;2023-03-12T15:24:32;12.60;99.90
17988;DHT22;9119;50.932;5.342;2023-03-12T15:29:51;12.40;99.90
17988;DHT22;9119;50.932;5.342;2023-03-12T15:32:18;12.50;99.90
17988;DHT22;9119;50.932;5.342;2023-03-12T15:34:50;12.50;99.90
17988;DHT22;9119;50.932;5.342;2023-03-12T15:37:28;12.50;99.90
17988;DHT22;9119;50.932;5.342;2023-03-12T15:40:00;12.50;99.90
17988;DHT22;9119;50.932;5.342;2023-03-12T15:42:27;12.40;99.90
17988;DHT22;9119;50.932;5.342;2023-03-12T15:44:58;12.40;99.90
17988;DHT22;9119;50.932;5.342;2023-03-12T15:47:29;12.40;99.90
17988;DHT22;9119;50.932;5.342;2023-03-12T15:50:16;12.50;99.90
17988;DHT22;9119;50.932;5.342;2023-03-12T15:52:58;12.50;99.90
17988;DHT22;9119;50.932;5.342;2023-03-12T15:55:34;12.50;99.90
17988;DHT22;9119;50.932;5.342;2023-03-12T15:58:00;12.50;99.90
17988;DHT22;9119;50.932;5.342;2023-03-12T16:00:40;12.50;99.90
17988;DHT22;9119;50.932;5.342;2023-03-12T16:03:17;12.50;99.90
17988;DHT22;9119;50.932;5.342;2023-03-12T16:05:43;12.50;99.90
17988;DHT22;9119;50.932;5.342;2023-03-12T16:08:15;12.50;99.90
17988;DHT22;9119;50.932;5.342;2023-03-12T16:10:42;12.50;99.90
17988;DHT22;9119;50.932;5.342;2023-03-12T16:13:12;12.40;99.90
17988;DHT22;9119;50.932;5.342;2023-03-12T16:15:39;12.40;99.90
17988;DHT22;9119;50.932;5.342;2023-03-12T16:18:14;12.40;99.90
17988;DHT22;9119;50.932;5.342;2023-03-12T16:20:40;12.40;99.90
17988;DHT22;9119;50.932;5.342;2023-03-12T16:23:06;12.40;99.90
17988;DHT22;9119;50.932;5.342;2023-03-12T16:25:32;12.30;99.90
17988;DHT22;9119;50.932;5.342;2023-03-12T16:28:00;12.30;99.90
17988;DHT22;9119;50.932;5.342;2023-03-12T16:30:33;12.30;99.90
17988;DHT22;9119;50.932;5.342;2023-03-12T16:33:00;12.30;99.90
17988;DHT22;9119;50.932;5.342;2023-03-12T16:35:26;12.30;99.90
17988;DHT22;9119;50.932;5.342;2023-03-12T16:37:53;12.30;99.90
17988;DHT22;9119;50.932;5.342;2023-03-12T16:40:19;12.30;99.90
17988;DHT22;9119;50.932;5.342;2023-03-12T16:42:48;12.30;99.90
17988;DHT22;9119;50.932;5.342;2023-03-12T16:45:16;12.30;99.90
17988;DHT22;9119;50.932;5.342;2023-03-12T16:47:42;12.30;99.90
17988;DHT22;9119;50.932;5.342;2023-03-12T16:50:19;12.20;99.90
17988;DHT22;9119;50.932;5.342;2023-03-12T16:52:46;12.20;99.90
17988;DHT22;9119;50.932;5.342;2023-03-12T16:55:15;12.20;99.90
17988;DHT22;9119;50.932;5.342;2023-03-12T16:57:46;12.20;99.90
17988;DHT22;9119;50.932;5.342;2023-03-12T17:00:20;12.20;99.90
17988;DHT22;9119;50.932;5.342;2023-03-12T17:02:47;12.30;99.90
17988;DHT22;9119;50.932;5.342;2023-03-12T17:05:14;12.30;99.90
17988;DHT22;9119;50.932;5.342;2023-03-12T17:07:40;12.20;99.90
17988;DHT22;9119;50.932;5.342;2023-03-12T17:10:07;12.20;99.90
17988;DHT22;9119;50.932;5.342;2023-03-12T17:12:35;12.20;99.90
17988;DHT22;9119;50.932;5.342;2023-03-12T17:15:04;12.20;99.90
17988;DHT22;9119;50.932;5.342;2023-03-12T17:17:32;12.10;99.90
17988;DHT22;9119;50.932;5.342;2023-03-12T17:19:57;12.10;99.90
17988;DHT22;9119;50.932;5.342;2023-03-12T17:22:26;12.10;99.90
17988;DHT22;9119;50.932;5.342;2023-03-12T17:24:52;12.10;99.90
17988;DHT22;9119;50.932;5.342;2023-03-12T17:27:18;12.10;99.90
17988;DHT22;9119;50.932;5.342;2023-03-12T17:29:44;12.10;99.90
17988;DHT22;9119;50.932;5.342;2023-03-12T17:32:10;12.10;99.90
17988;DHT22;9119;50.932;5.342;2023-03-12T17:34:35;12.10;99.90
17988;DHT22;9119;50.932;5.342;2023-03-12T17:37:01;12.10;99.90
17988;DHT22;9119;50.932;5.342;2023-03-12T17:39:27;12.10;99.90
17988;DHT22;9119;50.932;5.342;2023-03-12T17:41:53;12.10;99.90
17988;DHT22;9119;50.932;5.342;2023-03-12T17:44:19;12.10;99.90
17988;DHT22;9119;50.932;5.342;2023-03-12T17:46:44;12.00;99.90
17988;DHT22;9119;50.932;5.342;2023-03-12T17:49:10;12.00;99.90